createdAt,value
2023-09-23T00:09:20.017Z,959.2
2023-09-23T00:24:22.378Z,959.34
2023-09-23T00:39:24.515Z,959.46
2023-09-23T00:54:28.018Z,959.5
2023-09-23T01:09:30.315Z,959.71
2023-09-23T01:24:37.604Z,960.1
2023-09-23T01:39:39.609Z,960.47
2023-09-23T01:54:41.648Z,960.61
2023-09-23T02:09:43.907Z,960.78
2023-09-23T02:24:46.227Z,961
2023-09-23T02:39:48.277Z,960.99
2023-09-23T02:54:50.277Z,961.19
2023-09-23T03:09:52.282Z,961.18
2023-09-23T03:24:54.339Z,961.26
2023-09-23T03:39:56.772Z,961.23
2023-09-23T03:54:58.806Z,961.26
2023-09-23T04:10:01.441Z,961.41
2023-09-23T04:25:03.477Z,961.46
2023-09-23T04:40:05.476Z,961.51
2023-09-23T04:55:07.533Z,961.62
2023-09-23T05:10:09.552Z,961.72
2023-09-23T05:25:11.747Z,961.67
2023-09-23T05:40:14.791Z,961.75
2023-09-23T05:55:16.815Z,961.82
2023-09-23T06:10:18.929Z,961.98
2023-09-23T06:25:21.197Z,962.03
2023-09-23T06:40:23.260Z,962.11
2023-09-23T06:55:25.279Z,962.12
2023-09-23T07:10:27.240Z,962.16
2023-09-23T07:25:29.504Z,962.06
2023-09-23T07:40:31.618Z,962.06
2023-09-23T07:55:33.660Z,962.07
2023-09-23T08:10:35.716Z,962.12
2023-09-23T08:25:37.866Z,962.14
2023-09-23T08:40:40.183Z,962.18
2023-09-23T08:55:42.188Z,962.22
2023-09-23T09:10:44.257Z,962.21
2023-09-23T09:25:46.276Z,962.25
2023-09-23T09:40:48.476Z,962.27
2023-09-23T09:55:50.500Z,962.27
2023-09-23T10:10:52.628Z,962.25
2023-09-23T10:25:54.865Z,962.2
2023-09-23T10:40:57.082Z,962.28
2023-09-23T10:55:59.125Z,962.19
2023-09-23T11:11:01.326Z,962.21
2023-09-23T11:26:03.664Z,962.32
2023-09-23T11:41:06.005Z,962.21
2023-09-23T11:56:08.017Z,962.27
2023-09-23T12:11:10.061Z,962.33
2023-09-23T12:26:12.116Z,962.39
2023-09-23T12:41:14.303Z,962.43
2023-09-23T12:56:16.652Z,962.29
2023-09-23T13:11:18.741Z,962.3
2023-09-23T13:26:20.877Z,962.19
2023-09-23T13:41:23.119Z,962.34
2023-09-23T13:56:25.437Z,962.34
2023-09-23T14:11:27.526Z,962.33
2023-09-23T14:26:29.709Z,962.27
2023-09-23T14:41:32.079Z,962.23
2023-09-23T14:56:34.308Z,962.35
2023-09-23T15:11:36.376Z,962.24
2023-09-23T15:26:38.542Z,962.22
2023-09-23T15:41:40.798Z,962.22
2023-09-23T15:56:43.104Z,962.25
2023-09-23T16:11:45.246Z,962.24
2023-09-23T16:26:47.446Z,962.22
2023-09-23T16:41:49.541Z,962.3
2023-09-23T16:56:51.603Z,962.38
2023-09-23T17:11:53.531Z,962.54
2023-09-23T17:26:55.632Z,962.46
2023-09-23T17:41:57.629Z,962.42
2023-09-23T17:56:59.697Z,962.15
2023-09-23T18:12:01.594Z,962.29
2023-09-23T18:27:03.694Z,962.4
2023-09-23T18:42:05.672Z,962.37
2023-09-23T18:57:07.613Z,962.38
2023-09-23T19:12:09.676Z,962.21
2023-09-23T19:27:11.720Z,962.24
2023-09-23T19:42:13.647Z,962.08
2023-09-23T19:57:15.537Z,961.93
2023-09-23T20:12:17.612Z,961.81
2023-09-23T20:27:19.497Z,961.73
2023-09-23T20:42:21.450Z,961.47
2023-09-23T20:57:23.358Z,961.38
2023-09-23T21:12:25.304Z,961.04
2023-09-23T21:27:27.194Z,961.14
2023-09-23T21:42:29.216Z,961.02
2023-09-23T21:57:32.691Z,960.91
2023-09-23T22:12:36.258Z,960.74
2023-09-23T22:27:38.259Z,960.71
2023-09-23T22:42:40.197Z,960.52
2023-09-23T22:57:42.391Z,960.31
2023-09-23T23:12:44.344Z,960.46
2023-09-23T23:27:46.327Z,960.5
2023-09-23T23:42:48.343Z,960.35
2023-09-23T23:57:50.386Z,960.17
